Terminal Aerodrome Forecast
Issued by NWS

Home | Current Version | Previous Version | Text Only | Print | Product List | Glossary Off
Versions: 1 2 3 4 5 6 7 8 9 10 11 12 13 14 15

000
FTUS43 KICT 261506 AAA
TAFHUT
TAF AMD
KHUT 261506Z 2615/2712 35014KT P6SM BKN007 OVC015
     FM270100 33012KT P6SM VCSH SCT008 BKN015
     FM270600 33015KT P6SM SCT020 BKN035=

USA.gov is the U.S. government's official web portal to all federal, state and local government web resources and services.